Time;durP1;ratioP1;P1;durP2;ratioP2;P2;SDS_P1;SDS_P2;PMS_P1;PMS_P2;Temp;Humidity;BMP_temperature;BMP_pressure;BME280_temperature;BME280_humidity;BME280_pressure;Samples;Min_cycle;Max_cycle;Signal;HPM_P1;HPM_P2
2022/04/20 00:01:22;;;;;;;1.80;1.00;;;22.40;29.40;;;;;;5043856;28;20384;-80
2022/04/20 00:03:48;;;;;;;1.48;1.10;;;22.40;29.40;;;;;;5043955;28;20030;-81
2022/04/20 00:06:14;;;;;;;1.83;0.80;;;22.40;29.40;;;;;;5043427;28;20384;-82
2022/04/20 00:08:41;;;;;;;1.50;0.95;;;22.40;29.40;;;;;;5044270;28;20014;-81
2022/04/20 00:11:07;;;;;;;2.08;1.02;;;22.40;29.40;;;;;;5027843;28;20029;-81
2022/04/20 00:13:34;;;;;;;1.55;0.90;;;22.40;29.40;;;;;;5027458;28;20071;-80
2022/04/20 00:16:00;;;;;;;1.65;0.98;;;22.40;29.40;;;;;;5044229;28;20496;-80
2022/04/20 00:18:26;;;;;;;1.80;0.93;;;22.40;29.40;;;;;;5028017;28;20017;-81
2022/04/20 00:20:52;;;;;;;1.08;0.90;;;22.40;29.50;;;;;;5044660;28;20026;-82
2022/04/20 00:23:18;;;;;;;0.93;0.80;;;22.40;29.40;;;;;;5045342;28;20026;-81
2022/04/20 00:25:44;;;;;;;2.70;0.93;;;22.30;29.40;;;;;;5028989;28;20118;-82
2022/04/20 00:28:12;;;;;;;1.05;0.70;;;22.30;29.40;;;;;;5045691;28;20014;-81
2022/04/20 00:30:41;;;;;;;1.27;0.90;;;22.30;29.30;;;;;;5045156;28;20025;-82
2022/04/20 00:33:07;;;;;;;1.88;1.10;;;22.30;29.40;;;;;;5027790;28;20017;-81
2022/04/20 00:35:33;;;;;;;1.35;0.90;;;22.30;29.40;;;;;;5045743;28;20101;-80
2022/04/20 00:38:00;;;;;;;0.93;0.82;;;22.30;29.30;;;;;;5045958;28;20017;-80
2022/04/20 00:40:26;;;;;;;1.45;0.70;;;22.30;29.30;;;;;;5043186;28;20021;-83
2022/04/20 00:42:52;;;;;;;1.48;0.73;;;22.30;29.30;;;;;;5027794;28;20024;-82
2022/04/20 00:45:18;;;;;;;1.40;0.93;;;22.30;29.30;;;;;;5044167;28;20040;-81
2022/04/20 00:47:44;;;;;;;1.20;0.80;;;22.30;29.30;;;;;;5044551;28;20046;-81
2022/04/20 00:50:11;;;;;;;2.67;0.80;;;22.30;29.30;;;;;;5026775;28;20036;-81
2022/04/20 00:52:37;;;;;;;0.93;0.80;;;22.20;29.20;;;;;;5042751;28;20477;-81
2022/04/20 00:55:04;;;;;;;1.40;0.95;;;22.30;29.20;;;;;;5043084;28;20028;-80
2022/04/20 00:57:31;;;;;;;2.53;0.80;;;22.20;29.20;;;;;;5042516;28;20029;-82
2022/04/20 00:59:57;;;;;;;2.05;1.13;;;22.20;29.20;;;;;;5043743;28;20025;-81
2022/04/20 01:02:24;;;;;;;1.52;0.80;;;22.20;29.10;;;;;;5043312;28;20044;-80
2022/04/20 01:04:50;;;;;;;1.17;0.75;;;22.30;29.30;;;;;;5043337;28;20025;-80
2022/04/20 01:07:16;;;;;;;1.85;1.00;;;22.30;29.30;;;;;;5041811;28;20044;-82
2022/04/20 01:09:43;;;;;;;1.50;0.80;;;22.20;29.10;;;;;;5042536;28;20496;-80
2022/04/20 01:12:09;;;;;;;1.10;0.85;;;22.20;29.20;;;;;;5042731;28;20081;-81
2022/04/20 01:14:35;;;;;;;1.15;0.80;;;22.20;29.20;;;;;;5042573;28;20017;-79
2022/04/20 01:17:02;;;;;;;2.53;1.23;;;22.20;29.10;;;;;;5043280;28;20045;-81
2022/04/20 01:19:35;;;;;;;1.52;0.90;;;22.20;29.20;;;;;;5043785;28;20017;-82
2022/04/20 01:22:02;;;;;;;2.08;1.00;;;22.20;29.10;;;;;;5044554;28;20052;-82
2022/04/20 01:24:28;;;;;;;0.95;0.80;;;22.20;29.10;;;;;;5043218;28;20056;-80
2022/04/20 01:26:55;;;;;;;2.55;0.98;;;22.20;29.10;;;;;;5041414;28;20026;-80
2022/04/20 01:29:20;;;;;;;0.98;0.90;;;22.20;29.00;;;;;;5041719;28;20017;-81
2022/04/20 01:31:46;;;;;;;2.75;0.85;;;22.10;29.00;;;;;;5042231;28;20465;-80
2022/04/20 01:34:13;;;;;;;1.75;0.98;;;22.20;29.00;;;;;;5042156;28;20021;-80
2022/04/20 01:36:39;;;;;;;2.97;0.90;;;22.10;29.00;;;;;;5041757;28;20022;-81
2022/04/20 01:39:05;;;;;;;2.45;1.00;;;22.10;28.90;;;;;;5042575;28;20017;-81
2022/04/20 01:41:31;;;;;;;2.17;0.98;;;22.10;29.00;;;;;;5042116;28;20021;-79
2022/04/20 01:43:57;;;;;;;2.13;1.13;;;22.10;28.90;;;;;;5042390;28;20064;-80
2022/04/20 01:46:23;;;;;;;1.85;0.90;;;22.10;28.90;;;;;;5024387;28;20017;-80
2022/04/20 01:48:49;;;;;;;1.15;0.90;;;22.10;29.00;;;;;;5023944;28;20027;-79
2022/04/20 01:54:00;;;;;;;1.45;0.90;;;22.10;28.90;;;;;;5041370;28;20052;-80
2022/04/20 01:56:26;;;;;;;1.33;0.90;;;22.10;28.90;;;;;;5041230;28;20021;-80
2022/04/20 01:58:52;;;;;;;1.13;0.80;;;22.10;28.80;;;;;;5042213;28;20068;-80
2022/04/20 02:04:02;;;;;;;1.23;1.02;;;22.10;28.90;;;;;;5042319;28;20037;-79
2022/04/20 02:06:28;;;;;;;1.20;0.80;;;22.10;28.90;;;;;;5043148;28;20030;-80
2022/04/20 02:08:54;;;;;;;1.30;1.00;;;22.10;28.90;;;;;;5026536;28;20023;-79
2022/04/20 02:11:20;;;;;;;0.98;0.80;;;22.10;29.00;;;;;;5042843;28;20025;-81
2022/04/20 02:13:48;;;;;;;1.38;1.00;;;22.10;28.90;;;;;;5041730;28;20026;-80
2022/04/20 02:16:13;;;;;;;1.98;1.00;;;22.10;28.80;;;;;;5023499;28;20123;-81
2022/04/20 02:18:39;;;;;;;1.90;1.00;;;22.10;28.90;;;;;;5022365;28;20461;-81
2022/04/20 02:21:05;;;;;;;1.20;0.82;;;22.00;28.80;;;;;;5021222;28;20030;-80
2022/04/20 02:23:31;;;;;;;1.63;1.30;;;22.10;28.90;;;;;;5020957;28;20038;-83
2022/04/20 02:25:58;;;;;;;2.28;1.00;;;22.10;28.90;;;;;;5021631;28;20022;-80
2022/04/20 02:28:25;;;;;;;1.73;0.98;;;22.10;28.90;;;;;;5021711;28;20052;-81
2022/04/20 02:30:53;;;;;;;3.00;0.88;;;22.00;28.90;;;;;;5005278;28;20022;-80
2022/04/20 02:33:19;;;;;;;1.13;0.90;;;22.10;28.90;;;;;;5022501;28;20022;-82
2022/04/20 02:35:45;;;;;;;0.95;0.90;;;22.00;28.80;;;;;;5006893;28;20101;-81
2022/04/20 02:38:11;;;;;;;2.42;1.05;;;22.00;28.90;;;;;;5023127;28;20041;-81
2022/04/20 02:40:38;;;;;;;2.38;0.90;;;22.00;29.00;;;;;;5023801;28;20018;-82
2022/04/20 02:43:05;;;;;;;2.08;1.10;;;22.00;28.90;;;;;;5007013;28;20022;-80
2022/04/20 02:45:31;;;;;;;2.65;0.98;;;22.00;28.90;;;;;;5008017;28;20018;-80
2022/04/20 02:47:58;;;;;;;3.03;1.17;;;22.00;28.90;;;;;;5024086;28;20026;-80
2022/04/20 02:50:23;;;;;;;2.60;1.00;;;22.00;29.00;;;;;;5025271;28;20028;-81
2022/04/20 02:52:49;;;;;;;2.15;1.00;;;22.00;28.90;;;;;;5024062;28;20109;-82
2022/04/20 02:55:15;;;;;;;1.40;0.90;;;22.00;28.90;;;;;;5024898;28;20077;-82
2022/04/20 02:57:42;;;;;;;1.38;0.98;;;22.00;29.00;;;;;;5025278;28;20029;-81
2022/04/20 03:00:08;;;;;;;2.10;1.05;;;22.00;28.90;;;;;;5025256;28;20022;-82
2022/04/20 03:02:35;;;;;;;2.28;1.00;;;22.00;29.00;;;;;;5025022;28;20064;-82
2022/04/20 03:05:00;;;;;;;1.30;1.00;;;22.00;29.00;;;;;;5008559;28;20494;-82
2022/04/20 03:07:27;;;;;;;2.55;0.90;;;22.00;29.00;;;;;;5025089;28;20030;-81
2022/04/20 03:09:53;;;;;;;1.70;1.08;;;22.00;29.00;;;;;;5024425;28;20017;-80
2022/04/20 03:12:19;;;;;;;1.27;0.95;;;22.00;29.10;;;;;;5008224;28;20064;-81
2022/04/20 03:14:45;;;;;;;1.13;0.95;;;22.00;29.00;;;;;;5007724;28;20452;-82
2022/04/20 03:17:12;;;;;;;1.48;1.00;;;22.00;29.10;;;;;;5023596;28;20026;-82
2022/04/20 03:19:38;;;;;;;2.08;0.90;;;22.00;29.10;;;;;;5007707;28;20022;-80
2022/04/20 03:22:04;;;;;;;1.52;1.08;;;22.00;29.10;;;;;;5023536;28;20484;-81
2022/04/20 03:24:32;;;;;;;1.48;1.00;;;22.00;29.10;;;;;;5022672;28;20027;-83
2022/04/20 03:26:58;;;;;;;1.80;0.90;;;22.00;29.10;;;;;;5024088;28;20042;-80
2022/04/20 03:29:24;;;;;;;1.23;0.90;;;21.90;29.10;;;;;;5023631;28;20014;-80
2022/04/20 03:31:56;;;;;;;1.25;0.82;;;21.90;29.10;;;;;;5026682;28;20076;-80
2022/04/20 03:34:22;;;;;;;2.13;1.10;;;22.00;29.20;;;;;;5026597;28;20030;-81
2022/04/20 03:36:49;;;;;;;0.95;0.75;;;22.00;29.10;;;;;;5025857;28;20026;-81
2022/04/20 03:39:15;;;;;;;2.10;0.90;;;21.90;29.10;;;;;;5025884;28;20029;-81
2022/04/20 03:41:42;;;;;;;1.23;0.90;;;21.90;29.10;;;;;;5024704;28;20026;-81
2022/04/20 03:44:08;;;;;;;1.65;0.90;;;21.90;29.20;;;;;;5023922;28;20453;-81
2022/04/20 03:46:35;;;;;;;2.35;1.10;;;21.90;29.10;;;;;;5025742;28;20040;-81
2022/04/20 03:49:01;;;;;;;2.28;0.93;;;21.90;29.10;;;;;;5025680;28;20025;-80
2022/04/20 03:51:28;;;;;;;2.15;1.05;;;21.90;29.10;;;;;;5025146;28;20014;-82
2022/04/20 03:53:55;;;;;;;2.17;1.10;;;21.90;29.10;;;;;;5008884;28;20032;-80
2022/04/20 03:56:22;;;;;;;1.88;0.93;;;21.90;29.10;;;;;;5025369;28;20018;-81
2022/04/20 03:58:49;;;;;;;0.90;0.82;;;21.90;29.10;;;;;;5024608;28;20515;-80
2022/04/20 04:01:16;;;;;;;2.13;0.80;;;21.90;29.10;;;;;;5008470;28;20022;-81
2022/04/20 04:03:42;;;;;;;2.20;0.90;;;21.90;29.10;;;;;;5025070;28;20775;-80
2022/04/20 04:06:08;;;;;;;1.85;0.95;;;21.90;29.00;;;;;;5025416;28;20038;-81
2022/04/20 04:08:34;;;;;;;1.42;1.02;;;21.90;29.10;;;;;;5025211;28;20018;-81
2022/04/20 04:11:00;;;;;;;1.50;1.10;;;21.80;29.00;;;;;;5025556;28;20108;-80
2022/04/20 04:13:27;;;;;;;1.27;0.95;;;21.80;29.10;;;;;;5026188;28;20058;-80
2022/04/20 04:15:54;;;;;;;1.30;1.00;;;21.80;29.10;;;;;;5042589;28;20068;-81
2022/04/20 04:18:21;;;;;;;2.72;1.00;;;21.80;29.20;;;;;;5027532;28;20018;-80
2022/04/20 04:20:46;;;;;;;1.75;1.00;;;21.80;29.10;;;;;;5025293;28;20049;-81
2022/04/20 04:23:12;;;;;;;2.17;1.10;;;21.80;29.10;;;;;;5024414;28;20034;-81
2022/04/20 04:25:39;;;;;;;3.72;0.82;;;21.80;29.10;;;;;;5023286;28;20018;-80
2022/04/20 04:28:05;;;;;;;3.08;1.27;;;21.80;29.20;;;;;;5005931;28;20037;-82
2022/04/20 04:30:32;;;;;;;1.58;1.20;;;21.80;29.10;;;;;;5021512;28;20014;-80
2022/04/20 04:32:58;;;;;;;1.48;0.93;;;21.80;29.10;;;;;;5022444;28;20022;-81
2022/04/20 04:35:24;;;;;;;1.35;0.90;;;21.80;29.10;;;;;;5021450;28;20068;-80
2022/04/20 04:37:51;;;;;;;2.95;1.08;;;21.80;29.10;;;;;;5022966;28;20022;-80
2022/04/20 04:40:18;;;;;;;1.50;0.90;;;21.80;29.10;;;;;;5022767;28;20029;-81
2022/04/20 04:42:44;;;;;;;1.80;1.00;;;21.80;29.10;;;;;;5023093;28;20030;-81
2022/04/20 04:50:39;;;;;;;2.63;0.98;;;21.80;29.20;;;;;;5023394;28;20624;-80
2022/04/20 04:53:05;;;;;;;1.70;1.00;;;21.80;29.10;;;;;;5007590;28;20025;-81
2022/04/20 04:55:32;;;;;;;1.42;1.00;;;22.00;29.10;;;;;;5022885;28;20018;-81
2022/04/20 04:57:58;;;;;;;1.40;1.08;;;22.00;29.50;;;;;;5023098;28;20018;-81
2022/04/20 05:00:25;;;;;;;2.53;1.10;;;22.00;29.00;;;;;;5023107;28;20081;-81
2022/04/20 05:02:51;;;;;;;1.52;1.05;;;22.10;29.00;;;;;;5006617;28;20029;-80
2022/04/20 05:05:19;;;;;;;3.13;1.15;;;22.30;28.80;;;;;;5025028;28;20026;-81
2022/04/20 05:07:46;;;;;;;1.98;0.90;;;22.20;28.70;;;;;;5024996;28;20018;-81
2022/04/20 05:10:13;;;;;;;2.95;0.90;;;22.20;28.80;;;;;;5023521;28;20029;-82
2022/04/20 05:12:39;;;;;;;3.38;1.10;;;22.20;28.80;;;;;;5024240;28;20061;-81
2022/04/20 05:15:06;;;;;;;1.75;1.15;;;22.20;28.70;;;;;;5006718;28;20050;-80
2022/04/20 05:17:33;;;;;;;1.58;1.08;;;22.20;28.70;;;;;;5022473;28;20036;-80
2022/04/20 05:20:00;;;;;;;2.60;1.10;;;22.30;28.70;;;;;;5022652;28;20026;-81
2022/04/20 05:22:26;;;;;;;2.42;1.10;;;22.30;28.60;;;;;;5020468;28;20110;-82
2022/04/20 05:24:53;;;;;;;3.03;1.20;;;22.30;28.60;;;;;;5019437;28;20022;-81
2022/04/20 05:27:19;;;;;;;3.80;1.00;;;22.40;28.80;;;;;;5020343;28;20026;-80
2022/04/20 05:29:45;;;;;;;2.67;1.40;;;22.40;28.80;;;;;;5019725;28;20030;-81
2022/04/20 05:32:11;;;;;;;2.22;1.00;;;22.40;28.80;;;;;;5019711;28;20507;-81
2022/04/20 05:34:37;;;;;;;2.10;1.00;;;22.30;28.80;;;;;;5019553;28;20029;-81
2022/04/20 05:42:31;;;;;;;2.33;1.30;;;22.40;28.80;;;;;;5020842;28;20029;-81
2022/04/20 05:44:57;;;;;;;2.05;1.00;;;22.40;28.90;;;;;;5020408;28;20034;-80
2022/04/20 05:47:24;;;;;;;1.83;0.90;;;22.30;28.80;;;;;;5018890;28;20030;-80
2022/04/20 05:49:50;;;;;;;1.52;0.90;;;22.40;29.00;;;;;;5002701;28;20129;-81
2022/04/20 05:52:16;;;;;;;1.73;0.95;;;22.40;29.10;;;;;;5017983;28;20034;-80
2022/04/20 05:54:42;;;;;;;1.80;0.93;;;22.40;29.00;;;;;;5034098;28;20029;-80
2022/04/20 05:57:09;;;;;;;3.08;1.17;;;22.50;28.80;;;;;;5017107;28;20013;-81
2022/04/20 05:59:34;;;;;;;2.38;1.08;;;22.50;28.70;;;;;;5017054;28;20072;-80
2022/04/20 06:02:00;;;;;;;1.60;1.10;;;22.60;28.60;;;;;;5016815;28;20026;-81
2022/04/20 06:04:28;;;;;;;2.03;0.90;;;22.70;28.60;;;;;;5016295;28;20059;-81
2022/04/20 06:06:54;;;;;;;2.70;0.98;;;22.70;28.50;;;;;;5016288;28;20014;-79
2022/04/20 06:09:21;;;;;;;1.70;0.93;;;22.80;28.40;;;;;;5015325;28;20015;-80
2022/04/20 06:11:47;;;;;;;4.00;1.17;;;22.80;28.30;;;;;;4998016;28;20087;-79
2022/04/20 06:14:15;;;;;;;1.30;0.90;;;22.90;28.30;;;;;;5014622;28;20056;-79
2022/04/20 06:16:41;;;;;;;2.78;0.95;;;22.90;28.30;;;;;;4997179;28;20026;-80
2022/04/20 06:19:07;;;;;;;5.97;1.20;;;23.00;28.20;;;;;;5013441;28;20018;-79
2022/04/20 06:21:35;;;;;;;2.00;0.98;;;23.00;28.20;;;;;;5014462;28;20105;-82
2022/04/20 06:24:01;;;;;;;2.17;0.98;;;23.00;28.20;;;;;;5014486;28;20060;-80
2022/04/20 06:26:33;;;;;;;8.73;1.77;;;23.00;28.20;;;;;;5015618;28;20017;-80
2022/04/20 06:28:59;;;;;;;8.52;1.60;;;23.00;29.00;;;;;;5000420;28;20105;-79
2022/04/20 06:31:25;;;;;;;10.02;1.60;;;23.10;30.20;;;;;;5016137;28;20034;-85
2022/04/20 06:33:55;;;;;;;12.20;2.00;;;23.20;30.70;;;;;;4999164;28;20026;-79
2022/04/20 06:36:23;;;;;;;16.52;2.15;;;23.30;31.40;;;;;;4999860;28;20504;-80
2022/04/20 06:38:49;;;;;;;10.38;2.10;;;23.40;31.60;;;;;;5015220;28;20096;-79
2022/04/20 06:41:21;;;;;;;6.13;1.73;;;23.40;31.60;;;;;;5015172;28;20026;-85
2022/04/20 06:43:50;;;;;;;11.73;2.30;;;23.60;31.80;;;;;;5014922;28;20053;-82
2022/04/20 06:46:17;;;;;;;;;;;23.60;31.80;;;;;;5015513;28;20477;-81
2022/04/20 06:48:44;;;;;;;10.38;2.05;;;23.60;31.80;;;;;;4999941;28;19901;-80
2022/04/20 06:51:10;;;;;;;9.63;2.47;;;23.70;31.80;;;;;;5015085;28;20429;-79
2022/04/20 06:59:04;;;;;;;6.90;1.73;;;23.80;32.10;;;;;;5014860;28;20188;-78
2022/04/20 07:01:30;;;;;;;7.93;1.75;;;23.90;32.80;;;;;;4997852;28;20030;-79
2022/04/20 07:03:58;;;;;;;8.07;1.90;;;24.00;31.90;;;;;;4997300;28;20094;-80
2022/04/20 07:06:24;;;;;;;11.73;1.88;;;24.00;32.00;;;;;;5014384;28;20010;-79
2022/04/20 07:08:50;;;;;;;7.30;1.88;;;24.10;32.00;;;;;;5013413;28;20499;-78
2022/04/20 07:11:15;;;;;;;7.55;2.08;;;24.10;32.00;;;;;;5014006;28;20481;-82
2022/04/20 07:13:42;;;;;;;9.95;2.30;;;24.20;32.10;;;;;;5013849;28;20026;-79
2022/04/20 07:16:10;;;;;;;6.78;1.90;;;24.20;31.90;;;;;;4997858;28;20133;-81
2022/04/20 07:18:39;;;;;;;12.07;3.33;;;24.10;32.00;;;;;;5013791;28;20449;-80
2022/04/20 07:21:07;;;;;;;10.52;3.28;;;23.30;32.00;;;;;;5014809;28;20461;-80
2022/04/20 07:23:33;;;;;;;8.45;3.40;;;22.50;29.80;;;;;;5000519;28;20113;-79
2022/04/20 07:26:01;;;;;;;7.90;3.20;;;21.30;29.70;;;;;;4999951;28;20045;-79
2022/04/20 07:28:27;;;;;;;5.72;3.25;;;20.80;30.60;;;;;;5016964;28;20038;-80
2022/04/20 07:30:53;;;;;;;5.63;3.10;;;20.90;30.20;;;;;;5014955;28;20113;-79
2022/04/20 07:33:19;;;;;;;5.47;2.92;;;20.90;30.00;;;;;;5017430;28;20468;-79
2022/04/20 07:35:46;;;;;;;8.23;3.60;;;20.90;30.50;;;;;;5017909;28;20026;-77
2022/04/20 07:38:12;;;;;;;6.97;3.08;;;20.80;30.00;;;;;;5015245;28;20085;-78
2022/04/20 07:40:38;;;;;;;9.63;2.90;;;21.00;29.90;;;;;;5001591;28;20022;-77
2022/04/20 07:43:04;;;;;;;7.78;2.65;;;21.20;30.00;;;;;;5015940;28;20022;-77
2022/04/20 07:45:31;;;;;;;6.88;2.92;;;21.50;29.60;;;;;;5016792;28;20014;-79
2022/04/20 07:47:57;;;;;;;5.35;2.80;;;21.60;29.60;;;;;;4998339;28;20014;-77
2022/04/20 07:50:24;;;;;;;7.97;3.42;;;21.40;29.50;;;;;;5014560;28;20097;-78
2022/04/20 07:53:00;;;;;;;7.53;2.90;;;21.60;29.50;;;;;;5015697;28;20048;-79
2022/04/20 07:55:30;;;;;;;8.95;3.17;;;21.60;29.20;;;;;;5014004;28;20030;-79
2022/04/20 07:57:57;;;;;;;5.25;3.00;;;21.60;29.40;;;;;;4999543;28;20096;-77
2022/04/20 08:00:23;;;;;;;7.53;2.90;;;21.70;28.80;;;;;;4999040;28;20010;-78
2022/04/20 08:02:49;;;;;;;12.18;3.13;;;21.70;29.20;;;;;;4998372;28;20046;-78
2022/04/20 08:05:17;;;;;;;9.60;2.67;;;21.60;29.10;;;;;;5015376;28;20010;-78
2022/04/20 08:07:47;;;;;;;4.40;2.03;;;21.40;29.20;;;;;;5015304;28;20018;-78
2022/04/20 08:10:14;;;;;;;6.68;2.47;;;21.80;29.00;;;;;;5016969;28;20086;-79
2022/04/20 08:12:44;;;;;;;7.72;2.40;;;22.10;28.50;;;;;;4999432;28;20105;-79
2022/04/20 08:15:11;;;;;;;5.15;1.85;;;22.30;28.00;;;;;;5013885;28;20045;-79
2022/04/20 08:17:37;;;;;;;6.88;2.22;;;22.60;28.10;;;;;;5017306;28;20028;-80
2022/04/20 08:20:07;;;;;;;8.52;2.20;;;22.80;27.50;;;;;;5001511;28;20044;-81
2022/04/20 08:22:40;;;;;;;5.50;2.00;;;23.00;27.40;;;;;;4985443;28;20050;-78
2022/04/20 08:25:06;;;;;;;5.57;1.92;;;23.10;27.20;;;;;;5021387;28;20022;-78
2022/04/20 08:27:35;;;;;;;6.18;1.95;;;23.20;27.10;;;;;;5018130;28;20021;-78
2022/04/20 08:30:01;;;;;;;8.40;1.80;;;23.30;26.90;;;;;;5001439;28;20021;-81
2022/04/20 08:32:26;;;;;;;5.15;1.80;;;23.40;26.70;;;;;;5021778;28;20105;-80
2022/04/20 08:34:52;;;;;;;4.05;1.67;;;23.50;26.60;;;;;;5000938;28;20010;-82
2022/04/20 08:37:21;;;;;;;7.72;2.28;;;23.60;26.50;;;;;;5016858;28;20018;-82
2022/04/20 08:39:47;;;;;;;3.90;2.03;;;23.70;26.30;;;;;;5017279;28;20018;-84
2022/04/20 08:42:15;;;;;;;3.75;1.52;;;23.90;26.20;;;;;;5017133;28;20423;-82
2022/04/20 08:44:46;;;;;;;4.50;1.45;;;24.10;26.10;;;;;;5000915;28;20026;-81
2022/04/20 08:47:20;;;;;;;3.50;1.63;;;24.10;25.90;;;;;;5017796;28;20014;-80
2022/04/20 08:49:47;;;;;;;6.68;1.58;;;24.30;25.70;;;;;;5001956;28;20010;-80
2022/04/20 08:54:57;;;;;;;3.53;1.60;;;24.50;25.40;;;;;;5017293;28;20037;-80
2022/04/20 08:57:26;;;;;;;5.03;1.70;;;24.70;25.20;;;;;;5000733;28;20010;-80
2022/04/20 08:59:52;;;;;;;3.83;1.52;;;24.80;25.00;;;;;;5001574;28;20022;-82
2022/04/20 09:02:19;;;;;;;3.20;1.38;;;25.00;24.90;;;;;;5018043;28;20018;-79
2022/04/20 09:04:45;;;;;;;3.75;1.67;;;25.10;24.70;;;;;;5000465;28;20030;-80
2022/04/20 09:07:14;;;;;;;3.30;1.50;;;25.20;24.60;;;;;;5017085;28;20018;-79
2022/04/20 09:09:40;;;;;;;4.07;1.45;;;25.30;24.50;;;;;;4999576;28;20026;-80
2022/04/20 09:12:14;;;;;;;4.47;1.48;;;25.40;24.40;;;;;;5016945;28;20040;-79
2022/04/20 09:14:40;;;;;;;3.20;1.42;;;25.50;24.30;;;;;;5016080;28;20165;-81
2022/04/20 09:17:10;;;;;;;2.47;1.40;;;25.60;24.20;;;;;;5000002;28;20167;-80
2022/04/20 09:19:36;;;;;;;2.63;1.20;;;25.60;24.10;;;;;;4999799;28;20089;-81
2022/04/20 09:22:02;;;;;;;3.85;1.58;;;25.80;24.10;;;;;;5016008;28;20144;-80
2022/04/20 09:24:28;;;;;;;3.05;1.48;;;25.80;24.10;;;;;;5017809;28;20531;-80
2022/04/20 09:26:58;;;;;;;6.18;1.40;;;25.90;24.10;;;;;;4999872;28;20026;-79
2022/04/20 09:29:31;;;;;;;4.57;1.50;;;25.90;24.00;;;;;;5001822;28;20018;-80
2022/04/20 09:31:57;;;;;;;2.72;1.60;;;25.90;24.00;;;;;;5005006;28;20465;-81
2022/04/20 09:34:32;;;;;;;3.78;1.50;;;25.90;24.00;;;;;;5017354;28;20030;-84
2022/04/20 09:36:58;;;;;;;4.05;1.40;;;26.00;23.90;;;;;;5016662;28;20097;-78
2022/04/20 09:39:30;;;;;;;3.13;1.30;;;26.00;23.80;;;;;;5017722;28;20457;-79
2022/04/20 09:41:59;;;;;;;5.70;1.50;;;26.10;23.90;;;;;;5017619;28;20038;-79
2022/04/20 09:44:29;;;;;;;2.95;1.42;;;26.10;23.80;;;;;;5002556;28;20030;-78
2022/04/20 09:49:57;;;;;;;4.35;1.52;;;26.20;23.90;;;;;;5018036;28;20029;-80
2022/04/20 09:52:38;;;;;;;4.80;1.38;;;26.10;23.90;;;;;;5018411;28;20026;-81
2022/04/20 09:55:08;;;;;;;4.53;1.50;;;26.10;23.90;;;;;;5018756;28;20037;-80
2022/04/20 09:57:36;;;;;;;5.22;1.52;;;26.10;23.80;;;;;;5001168;28;20038;-81
2022/04/20 10:00:09;;;;;;;4.75;1.20;;;26.10;23.70;;;;;;5019007;28;20041;-83
2022/04/20 10:02:48;;;;;;;3.40;1.38;;;26.10;23.60;;;;;;5004180;28;20029;-81
2022/04/20 10:05:18;;;;;;;3.63;1.42;;;26.10;23.50;;;;;;5021286;28;20102;-82
2022/04/20 10:07:44;;;;;;;;;;;26.10;23.40;;;;;;5005465;28;20014;-82
2022/04/20 10:10:10;;;;;;;4.65;1.35;;;26.10;23.30;;;;;;5024031;28;19901;-82
2022/04/20 10:12:41;;;;;;;2.72;1.27;;;26.20;23.30;;;;;;5022512;28;20022;-82
2022/04/20 10:17:54;;;;;;;4.63;1.30;;;26.10;23.30;;;;;;5036793;28;20041;-82
2022/04/20 10:20:21;;;;;;;4.57;1.58;;;26.10;23.30;;;;;;5036949;28;20008;-84
2022/04/20 10:22:47;;;;;;;3.50;1.35;;;26.10;23.30;;;;;;5020370;28;20018;-82
2022/04/20 10:25:13;;;;;;;3.58;1.42;;;26.10;23.30;;;;;;5037191;28;20026;-83
2022/04/20 10:28:06;;;;;;;1.90;1.30;;;26.10;23.70;;;;;;5038017;28;20026;-84
2022/04/20 10:30:58;;;;;;;3.47;1.30;;;26.10;23.30;;;;;;5038355;28;20041;-82
2022/04/20 10:33:23;;;;;;;3.25;1.10;;;26.10;23.40;;;;;;5038355;28;20022;-81
2022/04/20 10:36:09;;;;;;;6.38;1.77;;;26.10;23.40;;;;;;5021609;28;20018;-81
2022/04/20 10:38:34;;;;;;;4.80;1.70;;;26.10;23.50;;;;;;5037717;28;20009;-81
2022/04/20 10:41:10;;;;;;;5.90;1.40;;;26.00;23.40;;;;;;5037263;28;20038;-81
2022/04/20 10:43:42;;;;;;;5.75;1.45;;;26.00;23.50;;;;;;5037849;28;20026;-81
2022/04/20 10:46:18;;;;;;;7.80;1.50;;;25.80;23.50;;;;;;5037452;28;20026;-81
2022/04/20 10:48:58;;;;;;;3.35;1.40;;;25.80;23.50;;;;;;5037596;28;20060;-80
2022/04/20 10:51:30;;;;;;;3.67;1.45;;;25.80;23.50;;;;;;5037916;28;20057;-82
2022/04/20 10:54:29;;;;;;;3.20;1.42;;;25.80;23.50;;;;;;5036998;28;20026;-82
2022/04/20 10:57:05;;;;;;;9.27;1.53;;;25.70;23.50;;;;;;5021403;28;20117;-81
2022/04/20 10:59:32;;;;;;;2.88;1.38;;;25.60;23.50;;;;;;5036918;28;20009;-81
2022/04/20 11:02:04;;;;;;;3.97;1.25;;;25.50;23.50;;;;;;5020359;28;20033;-82
2022/04/20 11:04:46;;;;;;;5.35;1.50;;;25.50;23.50;;;;;;5035979;28;20046;-82
2022/04/20 11:07:15;;;;;;;5.68;1.45;;;25.40;23.40;;;;;;5036306;28;20030;-80
2022/04/20 11:09:50;;;;;;;3.45;1.17;;;25.40;23.40;;;;;;5020347;28;20084;-82
2022/04/20 11:21:08;;;;;;;6.65;1.40;;;25.10;23.40;;;;;;5027176;28;20516;-82
2022/04/20 11:23:49;;;;;;;4.05;1.50;;;25.00;23.40;;;;;;5025597;28;20485;-80
2022/04/20 11:26:24;;;;;;;2.40;1.33;;;25.00;23.90;;;;;;5023748;28;20026;-82
2022/04/20 11:29:11;;;;;;;2.67;1.33;;;25.00;23.50;;;;;;5023048;28;20006;-81
2022/04/20 11:31:42;;;;;;;3.90;1.40;;;24.90;23.80;;;;;;5008149;28;20037;-80
2022/04/20 11:34:08;;;;;;;3.75;1.50;;;24.80;23.30;;;;;;5005086;28;20018;-80
2022/04/20 11:36:37;;;;;;;2.58;1.30;;;24.80;23.40;;;;;;5021224;28;20018;-83
2022/04/20 11:39:03;;;;;;;3.10;1.35;;;24.80;23.40;;;;;;5004864;28;20029;-80
2022/04/20 11:41:29;;;;;;;2.95;1.20;;;24.70;23.50;;;;;;5020828;28;20038;-80
2022/04/20 11:43:55;;;;;;;5.20;1.35;;;24.60;23.50;;;;;;5020293;28;20058;-82
2022/04/20 11:46:22;;;;;;;4.22;1.20;;;24.50;23.40;;;;;;5018350;28;20024;-81
2022/04/20 11:48:51;;;;;;;3.70;1.50;;;24.50;23.50;;;;;;5001596;28;20105;-82
2022/04/20 11:51:29;;;;;;;2.45;1.25;;;24.40;23.50;;;;;;5020696;28;20029;-81
2022/04/20 11:53:55;;;;;;;4.55;1.58;;;24.40;23.50;;;;;;5022358;28;20022;-81
2022/04/20 11:56:40;;;;;;;2.83;1.40;;;24.30;23.50;;;;;;5021211;28;20021;-82
2022/04/20 11:59:08;;;;;;;2.63;1.30;;;24.30;23.60;;;;;;5022131;28;20018;-82
2022/04/20 12:01:34;;;;;;;2.83;1.40;;;24.20;23.70;;;;;;5006238;28;20033;-80
2022/04/20 12:04:04;;;;;;;3.55;1.10;;;24.10;23.70;;;;;;5022066;28;20076;-80
2022/04/20 12:06:30;;;;;;;5.28;1.17;;;24.10;23.70;;;;;;5022275;28;20018;-81
2022/04/20 12:08:56;;;;;;;2.42;1.20;;;24.10;23.70;;;;;;5022437;28;20030;-81
2022/04/20 12:11:22;;;;;;;4.22;1.48;;;24.00;23.70;;;;;;5021717;28;20399;-79
2022/04/20 12:13:53;;;;;;;3.88;1.45;;;24.00;23.70;;;;;;5021319;28;20092;-79
2022/04/20 12:16:19;;;;;;;2.08;1.10;;;24.00;23.80;;;;;;5021333;28;20046;-79
2022/04/20 12:18:46;;;;;;;2.05;1.10;;;24.00;23.80;;;;;;5021130;28;20073;-79
2022/04/20 12:21:40;;;;;;;2.75;1.30;;;23.90;23.90;;;;;;5021539;28;20046;-80
2022/04/20 12:24:21;;;;;;;4.50;1.40;;;23.90;23.90;;;;;;5021813;28;20428;-80
2022/04/20 12:26:49;;;;;;;3.58;1.45;;;23.80;24.00;;;;;;5020711;28;20006;-80
2022/04/20 12:29:15;;;;;;;2.47;1.15;;;23.80;24.00;;;;;;5021210;28;20078;-81
2022/04/20 12:31:43;;;;;;;5.28;1.40;;;23.80;24.00;;;;;;5020617;28;20014;-81
2022/04/20 12:34:09;;;;;;;3.28;1.20;;;23.80;24.10;;;;;;5020608;28;20097;-81
2022/04/20 12:37:06;;;;;;;2.60;1.30;;;23.70;24.10;;;;;;5021524;28;20033;-80
2022/04/20 12:39:35;;;;;;;4.85;1.25;;;23.70;24.10;;;;;;5020174;28;20033;-80
2022/04/20 12:42:07;;;;;;;2.50;1.30;;;23.70;24.20;;;;;;5004788;28;20504;-80
2022/04/20 12:44:38;;;;;;;2.97;1.38;;;23.70;24.20;;;;;;5004756;28;20079;-80
2022/04/20 12:47:11;;;;;;;4.43;1.25;;;23.70;24.30;;;;;;5021814;28;20090;-79
2022/04/20 12:49:40;;;;;;;3.35;1.60;;;23.60;24.40;;;;;;5022182;28;20030;-82
2022/04/20 12:52:17;;;;;;;1.75;1.10;;;23.60;24.40;;;;;;5021199;28;20029;-80
2022/04/20 12:55:16;;;;;;;2.30;1.20;;;23.60;24.90;;;;;;5021595;28;20476;-81
2022/04/20 13:03:34;;;;;;;4.47;1.48;;;23.60;24.60;;;;;;5020620;28;20065;-82
2022/04/20 13:05:59;;;;;;;2.95;1.23;;;23.60;24.80;;;;;;5005048;28;20041;-80
2022/04/20 13:08:26;;;;;;;5.25;1.40;;;23.60;24.80;;;;;;5022789;28;20014;-81
2022/04/20 13:10:52;;;;;;;3.85;1.42;;;23.50;24.80;;;;;;5022049;28;20101;-81
2022/04/20 13:13:24;;;;;;;4.15;1.35;;;23.60;25.00;;;;;;5005162;28;20502;-79
2022/04/20 13:15:51;;;;;;;2.53;1.52;;;23.60;25.00;;;;;;5021450;28;20381;-80
2022/04/20 13:18:17;;;;;;;3.67;1.20;;;23.60;25.10;;;;;;5023133;28;20026;-81
2022/04/20 13:20:43;;;;;;;3.15;1.10;;;23.60;25.20;;;;;;5021606;28;20040;-81
2022/04/20 13:23:09;;;;;;;3.67;1.27;;;23.60;25.20;;;;;;5021330;28;20397;-82
2022/04/20 13:28:20;;;;;;;1.52;1.00;;;23.50;25.30;;;;;;5020682;28;20037;-79
2022/04/20 13:30:46;;;;;;;4.18;1.20;;;23.50;25.40;;;;;;5021853;28;20018;-80
2022/04/20 13:33:14;;;;;;;4.95;1.25;;;23.60;25.50;;;;;;5019928;28;20017;-80
2022/04/20 13:35:40;;;;;;;3.90;1.20;;;23.60;25.60;;;;;;5020627;28;20041;-81
2022/04/20 13:38:06;;;;;;;3.22;1.40;;;23.60;25.60;;;;;;5021295;28;20053;-82
2022/04/20 13:40:33;;;;;;;3.72;1.40;;;23.60;25.70;;;;;;5020845;28;20017;-79